Flight Track Log - Related Links

Times and Time Zones

All times are in EDT time to prevent confusion due to time zone crossing. See the UPS1301 flight status page for this flight to view local times or setup timezone preferences in your user account.

Time Position Orientation Groundspeed Altitude Reporting Facility
EDT Latitude Longitude Course Direction KTS MPH feet Rate Location/Type
Wed 10:53:47 PM 33.6530 -84.4190 208° Southwest 14 16  Level FlightAware ADS-B
Wed 10:54:43 PM 33.6520 -84.4190 180° South 22 25 220 Level FlightAware ADS-B
Wed 10:54:54 PM 33.6510 -84.4190 180° South 25 29 248 Level FlightAware ADS-B
Wed 10:55:22 PM 33.6510 -84.4180 90° East 28 32 255 Level FlightAware ADS-B
Wed 10:55:34 PM 33.6510 -84.4170 90° East 31 36 273 Level FlightAware ADS-B
Wed 10:56:00 PM 33.6510 -84.4150 90° East 16 18 281 Level FlightAware ADS-B
Wed 10:56:22 PM 33.6510 -84.4130 90° East 16 18 302 Level FlightAware ADS-B
Wed 10:56:34 PM 33.6510 -84.4120 90° East 34 39 321 Level FlightAware ADS-B
Wed 10:57:32 PM 33.6510 -84.4100 90° East 16 18 333 Level FlightAware ADS-B
Wed 10:57:40 PM 33.6500 -84.4100 180° South 19 22 406 Level FlightAware ADS-B
Wed 10:58:38 PM 33.6480 -84.4080 140° Southeast 25 29 419 Level FlightAware ADS-B
Wed 10:59:08 PM 33.6480 -84.4060 90° East 26 30 540 Level FlightAware ADS-B
Wed 11:00:31 PM 33.6470 -84.4060 180° South 18 21 635 Level FlightAware ADS-B
Wed 11:01:28 PM 33.6470 -84.4090 270° West 76 87 1,241 Level FlightAware ADS-B
Wed 11:01:58 PM 33.6470 -84.4320 270° West 146 168 1,800 2,786 Climbing FlightAware ADS-B
Wed 11:02:24 PM 33.6480 -84.4530 273° West 157 181 2,600 1,286 Climbing FlightAware ADS-B
Wed 11:02:40 PM 33.6490 -84.4680 275° West 176 203 2,700 1,364 Climbing FlightAware ADS-B
Wed 11:03:08 PM 33.6500 -84.4980 272° West 198 228 3,600 2,357 Climbing FlightAware ADS-B
Wed 11:03:36 PM 33.6520 -84.5290 274° West 212 244 4,900 2,250 Climbing FlightAware ADS-B
Wed 11:04:04 PM 33.6570 -84.5670 279° West 258 297 5,700 1,950 Climbing FlightAware ADS-B
Wed 11:04:16 PM 33.6640 -84.5830 298° West 269 310 6,200 2,786 Climbing FlightAware ADS-B
Wed 11:04:32 PM 33.6800 -84.5970 324° Northwest 279 321 7,000 3,000 Climbing FlightAware ADS-B
Wed 11:04:44 PM 33.6950 -84.6030 342° North 284 327 7,600 3,000 Climbing FlightAware ADS-B
Wed 11:05:12 PM 33.7330 -84.6000 North 294 338 9,000 2,535 Climbing FlightAware ADS-B
Wed 11:05:55 PM 33.7820 -84.5930 North 311 358 10,600 1,775 Climbing FlightAware ADS-B
Wed 11:06:23 PM 33.8150 -84.5930 360° North 336 387 11,100 2,113 Climbing FlightAware ADS-B
Wed 11:07:06 PM 33.9090 -84.5950 359° North 373 429 13,100 2,788 Climbing FlightAware ADS-B
Wed 11:08:02 PM 34.0070 -84.5950 360° North 382 440 15,700 2,764 Climbing FlightAware ADS-B
Wed 11:08:35 PM 34.0649 -84.5967 359° North 383 441 17,200 2,762 Climbing FlightAware ADS-B
Wed 11:09:05 PM 34.1183 -84.6012 356° North 384 442 18,600 2,557 Climbing FlightAware ADS-B
Wed 11:09:36 PM 34.1734 -84.6066 355° North 387 445 19,800 2,206 Climbing FlightAware ADS-B
Wed 11:10:13 PM 34.2404 -84.6130 355° North 396 456 21,100 2,087 Climbing FlightAware ADS-B
Wed 11:10:45 PM 34.2997 -84.6185 356° North 404 465 22,200 1,935 Climbing FlightAware ADS-B
Wed 11:11:15 PM 34.3564 -84.6238 356° North 412 474 23,100 1,900 Climbing FlightAware ADS-B
Wed 11:11:45 PM 34.4149 -84.6293 356° North 419 482 24,100 1,869 Climbing FlightAware ADS-B
Wed 11:12:16 PM 34.4755 -84.6350 356° North 425 489 25,000 1,742 Climbing FlightAware ADS-B
Wed 11:12:47 PM 34.5368 -84.6408 356° North 431 496 25,900 2,032 Climbing FlightAware ADS-B
Wed 11:13:18 PM 34.5982 -84.6466 356° North 430 495 27,100 2,262 Climbing FlightAware ADS-B
Wed 11:13:48 PM 34.6587 -84.6523 356° North 429 494 28,200 2,286 Climbing FlightAware ADS-B
Wed 11:14:21 PM 34.7229 -84.6583 356° North 428 493 29,500 1,636 Climbing FlightAware ADS-B
Wed 11:14:54 PM 34.7895 -84.6647 355° North 428 493 30,000 366 Climbing FlightAware ADS-B
Wed 11:15:43 PM 34.8864 -84.6739 356° North 427 491 30,000  Level FlightAware ADS-B
Wed 11:16:14 PM 34.9463 -84.6796 356° North 426 490 30,000  Level FlightAware ADS-B
Wed 11:17:08 PM 35.0524 -84.6898 356° North 426 490 30,000  Level FlightAware ADS-B
Wed 11:17:39 PM 35.1136 -84.6958 355° North 427 491 30,000  Level FlightAware ADS-B
Wed 11:18:09 PM 35.1729 -84.7016 355° North 427 491 30,000  Level FlightAware ADS-B
Wed 11:18:39 PM 35.2328 -84.7075 355° North 427 491 30,000  Level FlightAware ADS-B
Wed 11:19:09 PM 35.2920 -84.7132 356° North 427 491 30,000  Level FlightAware ADS-B
Wed 11:19:39 PM 35.3516 -84.7191 355° North 426 490 30,000  Level FlightAware ADS-B
Wed 11:20:10 PM 35.4119 -84.7250 355° North 426 490 30,000  Level FlightAware ADS-B
Wed 11:20:40 PM 35.4716 -84.7309 355° North 425 489 30,000  Level FlightAware ADS-B
Wed 11:21:11 PM 35.5316 -84.7369 355° North 424 488 30,000  Level FlightAware ADS-B
Wed 11:21:41 PM 35.5903 -84.7428 355° North 423 487 30,000  Level FlightAware ADS-B
Wed 11:22:11 PM 35.6496 -84.7487 355° North 423 487 30,000  Level FlightAware ADS-B
Wed 11:22:43 PM 35.7120 -84.7550 355° North 422 486 30,000  Level FlightAware ADS-B
Wed 11:23:14 PM 35.7720 -84.7611 355° North 421 484 30,000  Level FlightAware ADS-B
Wed 11:23:46 PM 35.8353 -84.7676 355° North 421 484 30,000  Level FlightAware ADS-B
Wed 11:24:16 PM 35.8930 -84.7737 355° North 419 482 30,000  Level FlightAware ADS-B
Wed 11:24:47 PM 35.9516 -84.7797 355° North 419 482 30,000  Level FlightAware ADS-B
Wed 11:25:17 PM 36.0113 -84.7859 355° North 419 482 30,000  Level FlightAware ADS-B
Wed 11:25:48 PM 36.0703 -84.7918 355° North 419 482 30,000  Level FlightAware ADS-B
Wed 11:26:26 PM 36.1445 -84.7993 355° North 419 482 30,000  Level FlightAware ADS-B
Wed 11:26:57 PM 36.2039 -84.8053 355° North 419 482 30,000  Level FlightAware ADS-B
Wed 11:27:45 PM 36.2979 -84.8147 355° North 420 483 30,000  Level FlightAware ADS-B
Wed 11:28:16 PM 36.3591 -84.8208 355° North 421 484 30,000  Level FlightAware ADS-B
Wed 11:28:47 PM 36.4180 -84.8266 355° North 422 486 30,000 -333 Level FlightAware ADS-B
Wed 11:29:46 PM 36.5340 -84.8380 355° North 423 487 29,500 -652 Descending FlightAware ADS-B
Wed 11:30:19 PM 36.5982 -84.8446 355° North 422 486 29,000 -688 Descending FlightAware ADS-B
Wed 11:31:22 PM 36.7198 -84.8571 355° North 411 473 28,400 -581 Descending FlightAware ADS-B
Wed 11:31:52 PM 36.7763 -84.8629 355° North 408 470 28,100 -590 Descending FlightAware ADS-B
Wed 11:32:23 PM 36.8344 -84.8688 355° North 405 466 27,800 -1,161 Descending FlightAware ADS-B
Wed 11:32:54 PM 36.8920 -84.8746 355° North 398 458 26,900 -1,869 Descending FlightAware ADS-B
Wed 11:33:24 PM 36.9475 -84.8803 355° North 392 451 25,900 -2,164 Descending FlightAware ADS-B
Wed 11:33:55 PM 37.0027 -84.8859 355° North 387 445 24,700 -2,190 Descending FlightAware ADS-B
Wed 11:34:27 PM 37.0612 -84.8919 355° North 383 441 23,600 -2,063 Descending FlightAware ADS-B
Wed 11:34:59 PM 37.1166 -84.8976 355° North 379 436 22,500 -2,091 Descending FlightAware ADS-B
Wed 11:35:33 PM 37.1764 -84.9038 355° North 378 435 21,300 -2,156 Descending FlightAware ADS-B
Wed 11:36:03 PM 37.2283 -84.9093 355° North 375 432 20,200 -2,143 Descending FlightAware ADS-B
Wed 11:36:43 PM 37.2960 -84.9160 355° North 370 426 18,800 -2,268 Descending FlightAware ADS-B
Wed 11:37:25 PM 37.3670 -84.9240 355° North 371 427 17,100 -2,222 Descending FlightAware ADS-B
Wed 11:37:37 PM 37.3902 -84.9260 356° North 366 421 16,800 -2,000 Descending FlightAware ADS-B
Wed 11:38:49 PM 37.5090 -84.9380 355° North 354 407 14,300 -1,654 Descending FlightAware ADS-B
Wed 11:39:44 PM 37.5900 -84.9470 355° North 349 402 13,300 -659 Descending FlightAware ADS-B
Wed 11:40:20 PM 37.6390 -84.9520 355° North 349 402 13,300  Level FlightAware ADS-B
Wed 11:41:10 PM 37.7070 -84.9600 355° North 349 402 13,300 -1,185 Level FlightAware ADS-B
Wed 11:43:02 PM 37.8110 -85.1680 302° West 303 349 10,100 -1,094 Descending FlightAware ADS-B
Wed 11:44:11 PM 37.8740 -85.2560 312° West 267 307 10,000 -424 Descending FlightAware ADS-B
Wed 11:44:41 PM 37.8980 -85.2900 312° West 259 298 9,400 -1,250 Descending FlightAware ADS-B
Wed 11:44:59 PM 37.9110 -85.3090 311° West 257 296 9,000 -1,532 Descending FlightAware ADS-B
Wed 11:45:28 PM 37.9350 -85.3420 313° West 255 293 8,200 -1,545 Descending FlightAware ADS-B
Wed 11:46:05 PM 37.9650 -85.3840 312° West 254 292 7,300 -1,385 Descending FlightAware ADS-B
Wed 11:46:33 PM 37.9870 -85.4140 313° West 244 281 6,700 -1,200 Descending FlightAware ADS-B
Wed 11:46:45 PM 37.9960 -85.4270 311° West 241 277 6,500 -1,421 Descending FlightAware ADS-B
Wed 11:47:11 PM 38.0160 -85.4550 312° West 240 276 5,800 -1,636 Descending FlightAware ADS-B
Wed 11:47:29 PM 38.0300 -85.4740 313° West 242 278 5,300 -913 Descending FlightAware ADS-B
Wed 11:47:57 PM 38.0500 -85.5020 312° West 245 282 5,100 -231 Descending FlightAware ADS-B
Wed 11:48:21 PM 38.0680 -85.5280 311° West 246 283 5,100  Level FlightAware ADS-B
Wed 11:48:49 PM 38.0900 -85.5590 312° West 246 283 5,100  Level FlightAware ADS-B
Wed 11:49:19 PM 38.1190 -85.5850 325° Northwest 263 303 5,100  Level FlightAware ADS-B
Wed 11:49:41 PM 38.1430 -85.5970 339° North 265 305 5,100 -86 Level FlightAware ADS-B
Wed 11:50:29 PM 38.1980 -85.6220 340° North 252 290 5,000 -395 Descending FlightAware ADS-B
Wed 11:50:57 PM 38.2290 -85.6340 343° North 243 280 4,600 -818 Descending FlightAware ADS-B
Wed 11:51:13 PM 38.2460 -85.6390 347° North 236 272 4,400 -682 Descending FlightAware ADS-B
Wed 11:51:41 PM 38.2760 -85.6500 344° North 237 273 4,100 -321 Descending FlightAware ADS-B
Wed 11:52:09 PM 38.3060 -85.6610 344° North 236 272 4,100  Level FlightAware ADS-B
Wed 11:52:21 PM 38.3190 -85.6650 346° North 236 272 4,100 -462 Level FlightAware ADS-B
Wed 11:52:35 PM 38.3310 -85.6720 335° Northwest 213 245 3,900 -1,000 Descending FlightAware ADS-B
Wed 11:52:51 PM 38.3400 -85.6870 307° West 195 224 3,600 -1,286 Descending FlightAware ADS-B
Wed 11:53:03 PM 38.3420 -85.7000 281° West 186 214 3,300 -750 Descending FlightAware ADS-B
Wed 11:53:31 PM 38.3390 -85.7290 262° West 164 189 3,100 -273 Descending FlightAware ADS-B
Wed 11:53:47 PM 38.3330 -85.7430 241° Southwest 153 176 3,100 -200 Level FlightAware ADS-B
Wed 11:54:01 PM 38.3240 -85.7480 204° Southwest 159 183 3,000 -571 Descending FlightAware ADS-B
Wed 11:54:29 PM 38.3040 -85.7560 197° South 168 193 2,700 -462 Descending FlightAware ADS-B
Wed 11:54:53 PM 38.2860 -85.7630 197° South 156 180 2,600 -429 Descending FlightAware ADS-B
Wed 11:55:11 PM 38.2740 -85.7610 173° South 162 186 2,400 -818 Descending FlightAware ADS-B
Wed 11:55:37 PM 38.2550 -85.7550 166° South 149 171 2,000 -778 Descending FlightAware ADS-B
Wed 11:56:05 PM 38.2390 -85.7490 164° South 125 144 1,700 -682 Descending FlightAware ADS-B
Wed 11:56:21 PM 38.2290 -85.7460 167° South 115 132 1,500 -714 Descending FlightAware ADS-B
Wed 11:56:47 PM 38.2160 -85.7410 163° South 114 131 1,200 -556 Descending FlightAware ADS-B
Wed 11:57:15 PM 38.2020 -85.7360 164° South 116 133 1,000 -517 Descending FlightAware ADS-B
Wed 11:57:45 PM 38.1870 -85.7310 165° South 117 135 700 -585 Descending FlightAware ADS-B
Wed 11:57:56 PM 38.1820 -85.7290 163° South 110 127 600 -162 Descending FlightAware ADS-B
Wed 11:58:22 PM 38.1710 -85.7250 164° South 110 127 600  Level FlightAware ADS-B
Wed 11:59:01 PM 38.1680 -85.7250 180° South 30 35 -923 Descending FlightAware ADS-B

Login

Don't have an account? Register now (free) for customized features, flight alerts, and more!